Archival Weather

Granbury Rgnl

Granbury, Texas (KGDJ)

Report from: Monday, January 29, 2024 11:55 PM UTC
Current time: Tuesday, June 18, 2024 11:29 AM UTC

Current weather – Weather history – Daily summaries
Weather forecast

Temperature18.6°C (65.5°F)
Dew point3.7°C (38.7°F)
Winds 3 kts (1.5 m/s, 3.5 mph) West-Southwest (240°)
Visibility10 mi. (16.1 km)
Clouds Sky clear
Altimeter30.21 in.Hg (1023 mB)
Relative humidity37 %
Density altitude214 ft. (65 m)
Remarks Fully automated report
Automated weather observing station with precipitation discriminator
Flight conditions Visual Meteorological Conditions
Raw dataKGDJ 292355Z AUTO 24003KT 10SM CLR 19/04 A3021 RMK AO2 T01860037 10225 20177
An error has occurred. This application may no longer respond until reloaded. Reload 🗙